Den Burg, Netherlands
Current Conditions -  °F | °C
As of 7:25 PM on Saturday 25 Oct 2014 (Local Time) from EHKD Reporting Station
Scattered Clouds Scattered Clouds  
Wind Chill: 55°   Ceiling: Unl
Heat Index: 55°   Visibility: 6mi
Dew Point: 46°   Wind: 12mph
Humidity: 72%   Direction: 240°WSW
Pressure: 30.06"   Gusts: NA
Location:  53.05°N, 4.8°E
Report Text: EHKD 251725Z AUTO 24010KT 9999 FEW031 13/08 Q1018 BLU 25015KT 9999 SCT030 SCT040
Loading
Personal Weather Stations






























Interactive Weather Map
Tropical Storm Tracking
New forecast layout! Learn more

10-Day Weather Forecast

Advertisements
Track Severe Weather on mobile